createdAt,value
2018-07-23T00:01:44.169Z,10.80
2018-07-23T00:04:13.857Z,15.77
2018-07-23T00:06:43.770Z,11.07
2018-07-23T00:09:13.358Z,10.03
2018-07-23T00:11:42.928Z,13.43
2018-07-23T00:14:12.649Z,12.93
2018-07-23T00:16:42.571Z,9.80
2018-07-23T00:19:12.440Z,11.50
2018-07-23T00:21:42.251Z,10.87
2018-07-23T00:24:12.373Z,12.43
2018-07-23T00:26:42.031Z,9.40
2018-07-23T00:29:12.059Z,10.83
2018-07-23T00:31:41.666Z,8.67
2018-07-23T00:34:11.330Z,9.63
2018-07-23T00:36:40.986Z,9.77
2018-07-23T00:39:11.062Z,8.47
2018-07-23T00:41:40.862Z,9.67
2018-07-23T00:44:10.455Z,11.47
2018-07-23T00:46:39.986Z,14.23
2018-07-23T00:49:09.490Z,12.57
2018-07-23T00:51:39.420Z,16.73
2018-07-23T00:54:09.259Z,9.27
2018-07-23T00:56:39.127Z,12.27
2018-07-23T00:59:08.830Z,15.80
2018-07-23T01:01:38.602Z,11.23
2018-07-23T01:04:08.701Z,12.90
2018-07-23T01:06:38.603Z,15.73
2018-07-23T01:09:10.130Z,10.40
2018-07-23T01:11:39.946Z,12.07
2018-07-23T01:14:09.859Z,11.20
2018-07-23T01:16:39.810Z,13.23
2018-07-23T01:19:09.481Z,15.77
2018-07-23T01:21:39.238Z,11.37
2018-07-23T01:24:08.768Z,11.33
2018-07-23T01:26:38.518Z,11.20
2018-07-23T01:29:08.228Z,14.87
2018-07-23T01:31:37.952Z,10.40
2018-07-23T01:34:07.726Z,11.97
2018-07-23T01:36:37.365Z,13.30
2018-07-23T01:39:09.082Z,12.37
2018-07-23T01:41:38.802Z,13.17
2018-07-23T01:44:08.648Z,13.13
2018-07-23T01:46:38.277Z,11.10
2018-07-23T01:49:08.174Z,10.83
2018-07-23T01:51:37.878Z,12.37
2018-07-23T01:54:07.466Z,11.90
2018-07-23T01:56:37.135Z,10.50
2018-07-23T01:59:06.873Z,9.43
2018-07-23T02:01:36.750Z,10.50
2018-07-23T02:04:06.955Z,20.43
2018-07-23T02:06:36.725Z,10.70
2018-07-23T02:09:09.335Z,18.10
2018-07-23T02:11:39.013Z,16.70
2018-07-23T02:14:09.384Z,18.30
2018-07-23T02:16:38.862Z,11.77
2018-07-23T02:19:08.643Z,11.30
2018-07-23T02:21:38.649Z,14.83
2018-07-23T02:24:08.570Z,12.43
2018-07-23T02:26:38.203Z,18.40
2018-07-23T02:29:07.664Z,10.13
2018-07-23T02:31:37.230Z,11.20
2018-07-23T02:34:06.911Z,13.03
2018-07-23T02:36:36.653Z,16.23
2018-07-23T02:39:09.311Z,13.23
2018-07-23T02:41:39.040Z,12.23
2018-07-23T02:44:08.659Z,25.87
2018-07-23T02:46:38.637Z,15.00
2018-07-23T02:49:08.729Z,16.93
2018-07-23T02:51:38.558Z,16.50
2018-07-23T02:54:08.742Z,12.97
2018-07-23T02:56:38.659Z,13.80
2018-07-23T02:59:08.358Z,10.40
2018-07-23T03:01:37.918Z,16.87
2018-07-23T03:04:07.741Z,14.33
2018-07-23T03:06:37.555Z,12.47
2018-07-23T03:09:08.166Z,13.27
2018-07-23T03:11:37.912Z,12.33
2018-07-23T03:14:07.662Z,12.43
2018-07-23T03:16:37.523Z,13.57
2018-07-23T03:19:07.146Z,14.80
2018-07-23T03:21:37.218Z,18.60
2018-07-23T03:24:06.760Z,10.90
2018-07-23T03:26:36.593Z,13.10
2018-07-23T03:29:06.612Z,16.37
2018-07-23T03:31:36.076Z,10.00
2018-07-23T03:34:05.718Z,13.87
2018-07-23T03:36:35.187Z,14.73
2018-07-23T03:39:06.608Z,16.27
2018-07-23T03:41:36.271Z,19.50
2018-07-23T03:44:05.989Z,15.73
2018-07-23T03:46:35.499Z,20.60
2018-07-23T03:49:05.132Z,12.17
2018-07-23T03:51:34.750Z,12.97
2018-07-23T03:54:04.355Z,14.73
2018-07-23T03:56:34.022Z,13.90
2018-07-23T03:59:03.682Z,13.83
2018-07-23T04:01:33.539Z,18.67
2018-07-23T04:04:03.047Z,18.67
2018-07-23T04:06:32.500Z,15.53
2018-07-23T04:09:02.119Z,17.83
2018-07-23T04:11:31.741Z,19.63
2018-07-23T04:14:01.276Z,16.03
2018-07-23T04:16:30.861Z,17.53
2018-07-23T04:19:00.574Z,19.37
2018-07-23T04:21:30.202Z,14.87
2018-07-23T04:23:59.730Z,13.47
2018-07-23T04:26:29.322Z,16.23
2018-07-23T04:28:59.047Z,13.93
2018-07-23T04:31:28.554Z,16.00
2018-07-23T04:33:58.107Z,24.03
2018-07-23T04:36:27.654Z,22.30
2018-07-23T04:38:57.235Z,34.93
2018-07-23T04:41:26.750Z,22.20
2018-07-23T04:43:56.598Z,18.37
2018-07-23T04:46:26.294Z,19.37
2018-07-23T04:48:55.877Z,22.47
2018-07-23T04:51:25.461Z,8.77
2018-07-23T04:53:55.233Z,15.60
2018-07-23T04:56:24.906Z,13.73
2018-07-23T04:58:54.589Z,15.50
2018-07-23T05:01:24.099Z,13.77
2018-07-23T05:03:53.671Z,17.50
2018-07-23T05:06:23.449Z,14.07
2018-07-23T05:08:52.942Z,19.17
2018-07-23T05:11:22.434Z,13.93
2018-07-23T05:13:51.914Z,12.87
2018-07-23T05:16:21.576Z,14.90
2018-07-23T05:18:51.203Z,18.73
2018-07-23T05:21:21.095Z,14.20
2018-07-23T05:23:50.801Z,15.60
2018-07-23T05:26:20.669Z,11.97
2018-07-23T05:28:50.471Z,6.93
2018-07-23T05:31:20.413Z,8.00
2018-07-23T05:33:50.175Z,9.90
2018-07-23T05:36:19.903Z,15.63
2018-07-23T05:38:49.821Z,12.50
2018-07-23T05:41:19.402Z,8.63
2018-07-23T05:43:49.045Z,7.03
2018-07-23T05:46:18.671Z,8.50
2018-07-23T05:48:48.417Z,4.77
2018-07-23T05:51:18.167Z,7.33
2018-07-23T05:53:48.084Z,5.87
2018-07-23T05:56:17.889Z,4.97
2018-07-23T05:58:47.932Z,9.23
2018-07-23T06:01:17.859Z,9.47
2018-07-23T06:03:47.378Z,5.33
2018-07-23T06:06:17.070Z,4.10
2018-07-23T06:08:46.940Z,5.00
2018-07-23T06:11:16.884Z,5.07
2018-07-23T06:13:46.829Z,6.15
2018-07-23T06:16:16.426Z,5.10
2018-07-23T06:18:46.107Z,6.30
2018-07-23T06:21:15.678Z,5.90
2018-07-23T06:23:45.507Z,11.83
2018-07-23T06:26:15.601Z,5.90
2018-07-23T06:28:45.255Z,5.92
2018-07-23T06:31:14.995Z,5.40
2018-07-23T06:33:44.863Z,7.80
2018-07-23T06:36:14.843Z,10.72
2018-07-23T06:38:44.637Z,9.10
2018-07-23T06:41:14.287Z,6.53
2018-07-23T06:43:44.404Z,5.58
2018-07-23T06:46:14.170Z,16.00
2018-07-23T06:48:43.738Z,13.35
2018-07-23T06:51:13.258Z,5.10
2018-07-23T06:53:42.792Z,7.70
2018-07-23T06:56:12.394Z,8.25
2018-07-23T06:58:42.036Z,7.33
2018-07-23T07:01:11.538Z,6.08
2018-07-23T07:03:41.329Z,8.43
2018-07-23T07:06:11.310Z,11.20
2018-07-23T07:08:41.379Z,6.30
2018-07-23T07:11:11.147Z,9.48
2018-07-23T07:13:40.817Z,5.65
2018-07-23T07:16:10.669Z,4.80
2018-07-23T07:18:40.399Z,9.10
2018-07-23T07:21:10.021Z,5.97
2018-07-23T07:23:39.770Z,4.65
2018-07-23T07:26:09.288Z,7.03
2018-07-23T07:28:38.807Z,5.10
2018-07-23T07:31:08.354Z,4.47
2018-07-23T07:33:38.186Z,9.23
2018-07-23T07:36:07.839Z,10.65
2018-07-23T07:38:37.534Z,5.20
2018-07-23T07:41:07.954Z,5.33
2018-07-23T07:43:38.079Z,8.25
2018-07-23T07:46:07.647Z,7.85
2018-07-23T07:48:37.450Z,7.83
2018-07-23T07:51:07.397Z,6.30
2018-07-23T07:53:37.537Z,4.90
2018-07-23T07:56:07.250Z,4.58
2018-07-23T07:58:36.811Z,6.50
2018-07-23T08:01:06.314Z,4.55
2018-07-23T08:03:36.359Z,6.15
2018-07-23T08:06:06.039Z,4.65
2018-07-23T08:08:35.830Z,4.30
2018-07-23T08:11:05.609Z,6.05
2018-07-23T08:13:35.581Z,5.78
2018-07-23T08:16:05.526Z,8.25
2018-07-23T08:18:35.662Z,6.62
2018-07-23T08:21:05.394Z,4.95
2018-07-23T08:23:35.247Z,4.58
2018-07-23T08:26:05.425Z,5.17
2018-07-23T08:28:35.545Z,6.90
2018-07-23T08:31:05.136Z,7.12
2018-07-23T08:33:34.766Z,8.35
2018-07-23T08:36:04.375Z,7.17
2018-07-23T08:38:34.282Z,8.58
2018-07-23T08:41:04.085Z,7.10
2018-07-23T08:43:33.921Z,4.72
2018-07-23T08:46:03.573Z,9.53
2018-07-23T08:48:33.478Z,5.47
2018-07-23T08:51:03.452Z,5.90
2018-07-23T08:53:33.160Z,8.20
2018-07-23T08:56:02.789Z,7.10
2018-07-23T08:58:32.503Z,5.08
2018-07-23T09:01:02.254Z,4.83
2018-07-23T09:03:31.910Z,9.88
2018-07-23T09:06:01.543Z,6.12
2018-07-23T09:08:31.120Z,5.40
2018-07-23T09:11:01.137Z,9.60
2018-07-23T09:13:30.994Z,6.40
2018-07-23T09:16:00.952Z,4.60
2018-07-23T09:18:30.639Z,6.67
2018-07-23T09:21:00.711Z,6.22
2018-07-23T09:23:30.682Z,6.12
2018-07-23T09:26:00.397Z,5.00
2018-07-23T09:28:30.328Z,4.95
2018-07-23T09:31:00.233Z,4.95
2018-07-23T09:33:29.967Z,7.55
2018-07-23T09:35:59.735Z,4.87
2018-07-23T09:38:29.385Z,9.13
2018-07-23T09:40:59.090Z,4.92
2018-07-23T09:43:28.764Z,4.92
2018-07-23T09:45:58.410Z,8.45
2018-07-23T09:48:28.032Z,5.35
2018-07-23T09:50:58.107Z,7.47
2018-07-23T09:53:27.800Z,5.92
2018-07-23T09:55:57.750Z,5.90
2018-07-23T09:58:27.666Z,8.48
2018-07-23T10:01:02.248Z,5.90
2018-07-23T10:03:31.939Z,6.25
2018-07-23T10:06:01.510Z,7.75
2018-07-23T10:08:31.340Z,5.45
2018-07-23T10:11:01.377Z,9.85
2018-07-23T10:13:31.336Z,9.38
2018-07-23T10:16:00.796Z,9.28
2018-07-23T10:18:30.702Z,8.73
2018-07-23T10:21:00.315Z,14.53
2018-07-23T10:23:30.492Z,11.50
2018-07-23T10:26:00.103Z,9.40
2018-07-23T10:28:29.909Z,12.17
2018-07-23T10:30:59.645Z,14.57
2018-07-23T10:33:29.560Z,10.70
2018-07-23T10:35:59.257Z,12.03
2018-07-23T10:38:30.076Z,12.53
2018-07-23T10:40:59.831Z,12.53
2018-07-23T10:43:29.331Z,14.47
2018-07-23T10:45:59.029Z,15.43
2018-07-23T10:48:28.565Z,18.70
2018-07-23T10:50:58.345Z,21.40
2018-07-23T10:53:28.282Z,17.10
2018-07-23T10:55:57.924Z,22.13
2018-07-23T10:58:27.708Z,17.00
2018-07-23T11:00:57.687Z,13.53
2018-07-23T11:03:27.419Z,18.47
2018-07-23T11:05:57.110Z,16.23
2018-07-23T11:08:26.866Z,17.00
2018-07-23T11:10:56.425Z,16.03
2018-07-23T11:13:26.315Z,13.53
2018-07-23T11:15:56.158Z,18.37
2018-07-23T11:18:25.803Z,16.40
2018-07-23T11:20:55.410Z,13.73
2018-07-23T11:23:25.107Z,12.67
2018-07-23T11:25:55.116Z,15.97
2018-07-23T11:28:24.955Z,11.10
2018-07-23T11:30:54.670Z,12.53
2018-07-23T11:33:24.648Z,12.27
2018-07-23T11:35:54.749Z,15.07
2018-07-23T11:38:24.552Z,12.20
2018-07-23T11:40:54.222Z,10.17
2018-07-23T11:43:24.007Z,12.83
2018-07-23T11:45:54.159Z,8.80
2018-07-23T11:48:24.003Z,8.00
2018-07-23T11:50:53.660Z,10.20
2018-07-23T11:53:23.307Z,8.63
2018-07-23T11:55:53.663Z,9.53
2018-07-23T11:58:23.316Z,11.17
2018-07-23T12:00:53.186Z,7.40
2018-07-23T12:03:22.920Z,6.90
2018-07-23T12:05:52.702Z,11.03
2018-07-23T12:08:22.310Z,8.20
2018-07-23T12:10:51.794Z,9.50
2018-07-23T12:13:21.388Z,9.20
2018-07-23T12:15:51.300Z,16.97
2018-07-23T12:18:21.290Z,19.43
2018-07-23T12:20:51.140Z,10.23
2018-07-23T12:23:20.881Z,8.75
2018-07-23T12:25:50.386Z,6.30
2018-07-23T12:28:19.882Z,5.87
2018-07-23T12:30:49.592Z,10.60
2018-07-23T12:33:19.287Z,8.63
2018-07-23T12:35:48.929Z,13.03
2018-07-23T12:38:18.738Z,10.38
2018-07-23T12:40:48.574Z,6.28
2018-07-23T12:43:18.526Z,6.53
2018-07-23T12:45:48.276Z,8.63
2018-07-23T12:48:18.468Z,5.55
2018-07-23T12:50:47.995Z,7.37
2018-07-23T12:53:17.686Z,8.50
2018-07-23T12:55:47.466Z,9.05
2018-07-23T12:58:17.074Z,6.33
2018-07-23T13:00:46.579Z,6.75
2018-07-23T13:03:16.149Z,9.63
2018-07-23T13:05:45.798Z,7.58
2018-07-23T13:08:15.769Z,10.72
2018-07-23T13:10:45.543Z,6.08
2018-07-23T13:13:15.543Z,21.27
2018-07-23T13:15:45.176Z,6.03
2018-07-23T13:18:15.727Z,8.15
2018-07-23T13:20:45.678Z,8.68
2018-07-23T13:23:15.519Z,9.90
2018-07-23T13:25:45.258Z,9.38
2018-07-23T13:28:15.178Z,12.00
2018-07-23T13:30:46.303Z,10.80
2018-07-23T13:33:16.247Z,9.77
2018-07-23T13:35:46.038Z,9.43
2018-07-23T13:38:16.168Z,11.50
2018-07-23T13:40:45.791Z,11.10
2018-07-23T13:43:15.606Z,16.33
2018-07-23T13:45:45.267Z,11.07
2018-07-23T13:48:14.966Z,10.53
2018-07-23T13:50:45.267Z,9.00
2018-07-23T13:53:15.223Z,7.13
2018-07-23T13:55:44.996Z,7.07
2018-07-23T13:58:14.554Z,6.23
2018-07-23T14:00:44.092Z,9.27
2018-07-23T14:03:13.648Z,6.73
2018-07-23T14:05:43.214Z,6.87
2018-07-23T14:08:12.898Z,8.00
2018-07-23T14:10:42.610Z,6.13
2018-07-23T14:13:12.289Z,9.27
2018-07-23T14:15:42.030Z,7.07
2018-07-23T14:18:11.813Z,5.87
2018-07-23T14:20:41.671Z,5.27
2018-07-23T14:23:11.475Z,6.30
2018-07-23T14:25:41.077Z,10.13
2018-07-23T14:28:10.798Z,5.43
2018-07-23T14:30:40.610Z,5.60
2018-07-23T14:33:10.202Z,6.47
2018-07-23T14:35:39.922Z,11.23
2018-07-23T14:38:10.028Z,6.60
2018-07-23T14:40:40.032Z,6.07
2018-07-23T14:43:09.648Z,7.70
2018-07-23T14:45:39.312Z,8.47
2018-07-23T14:48:09.400Z,8.70
2018-07-23T14:50:39.492Z,12.17
2018-07-23T14:53:09.458Z,9.55
2018-07-23T14:55:39.284Z,10.82
2018-07-23T14:58:09.026Z,10.48
2018-07-23T15:00:38.452Z,10.23
2018-07-23T15:03:08.090Z,12.55
2018-07-23T15:05:37.630Z,11.88
2018-07-23T15:08:07.302Z,8.53
2018-07-23T15:10:37.327Z,9.13
2018-07-23T15:13:07.185Z,7.95
2018-07-23T15:15:36.847Z,13.60
2018-07-23T15:18:06.503Z,7.10
2018-07-23T15:20:36.371Z,8.73
2018-07-23T15:23:06.251Z,8.85
2018-07-23T15:25:35.968Z,8.80
2018-07-23T15:28:05.711Z,8.83
2018-07-23T15:30:35.535Z,10.88
2018-07-23T15:33:05.172Z,9.55
2018-07-23T15:35:34.801Z,7.90
2018-07-23T15:38:04.570Z,9.70
2018-07-23T15:40:34.090Z,11.60
2018-07-23T15:43:03.883Z,10.23
2018-07-23T15:45:33.828Z,12.43
2018-07-23T15:48:03.694Z,16.67
2018-07-23T15:50:33.526Z,16.43
2018-07-23T15:53:03.194Z,15.80
2018-07-23T15:55:34.227Z,14.40
2018-07-23T15:58:04.346Z,16.60
2018-07-23T16:00:33.977Z,12.87
2018-07-23T16:03:03.762Z,15.97
2018-07-23T16:05:33.689Z,12.13
2018-07-23T16:08:03.502Z,12.40
2018-07-23T16:10:33.610Z,11.47
2018-07-23T16:13:03.576Z,11.37
2018-07-23T16:15:33.439Z,14.37
2018-07-23T16:18:03.092Z,13.27
2018-07-23T16:20:33.160Z,9.67
2018-07-23T16:23:03.086Z,10.70
2018-07-23T16:25:32.912Z,9.97
2018-07-23T16:28:02.655Z,9.73
2018-07-23T16:30:32.297Z,8.23
2018-07-23T16:33:01.907Z,7.77
2018-07-23T16:35:31.463Z,9.40
2018-07-23T16:38:01.375Z,9.70
2018-07-23T16:40:31.215Z,8.90
2018-07-23T16:43:00.878Z,8.47
2018-07-23T16:45:37.223Z,11.00
2018-07-23T16:48:07.401Z,9.53
2018-07-23T16:50:37.283Z,10.87
2018-07-23T16:53:08.193Z,9.50
2018-07-23T16:55:37.854Z,11.23
2018-07-23T16:58:07.968Z,10.17
2018-07-23T17:00:37.561Z,9.53
2018-07-23T17:03:07.312Z,12.47
2018-07-23T17:05:37.497Z,11.77
2018-07-23T17:08:07.160Z,13.40
2018-07-23T17:10:37.010Z,12.43
2018-07-23T17:13:06.795Z,14.67
2018-07-23T17:15:37.024Z,13.63
2018-07-23T17:18:07.223Z,15.33
2018-07-23T17:20:36.754Z,18.27
2018-07-23T17:23:06.731Z,18.57
2018-07-23T17:25:36.562Z,15.40
2018-07-23T17:28:06.578Z,15.70
2018-07-23T17:30:36.243Z,16.40
2018-07-23T17:33:06.007Z,15.90
2018-07-23T17:35:36.042Z,18.77
2018-07-23T17:38:06.075Z,19.57
2018-07-23T17:40:36.145Z,26.00
2018-07-23T17:43:06.613Z,21.90
2018-07-23T17:45:36.651Z,21.77
2018-07-23T17:48:06.579Z,34.20
2018-07-23T17:50:36.405Z,29.33
2018-07-23T17:53:06.407Z,23.83
2018-07-23T17:55:36.310Z,23.60
2018-07-23T17:58:06.003Z,23.10
2018-07-23T18:00:35.621Z,27.80
2018-07-23T18:03:05.431Z,26.07
2018-07-23T18:05:35.336Z,22.87
2018-07-23T18:08:05.301Z,32.37
2018-07-23T18:10:35.286Z,32.13
2018-07-23T18:13:05.204Z,34.57
2018-07-23T18:15:35.321Z,36.00
2018-07-23T18:18:05.095Z,39.10
2018-07-23T18:20:34.923Z,38.63
2018-07-23T18:23:04.546Z,42.53
2018-07-23T18:25:34.578Z,39.47
2018-07-23T18:28:04.308Z,41.43
2018-07-23T18:30:33.897Z,41.00
2018-07-23T18:33:03.487Z,48.07
2018-07-23T18:35:33.210Z,34.13
2018-07-23T18:38:03.180Z,38.17
2018-07-23T18:40:32.685Z,39.63
2018-07-23T18:43:02.432Z,41.00
2018-07-23T18:45:32.219Z,31.50
2018-07-23T18:48:01.992Z,37.17
2018-07-23T18:50:31.990Z,38.60
2018-07-23T18:53:01.888Z,37.67
2018-07-23T18:55:31.771Z,35.13
2018-07-23T18:58:01.808Z,32.17
2018-07-23T19:00:31.433Z,32.43
2018-07-23T19:03:01.087Z,31.53
2018-07-23T19:05:31.032Z,35.30
2018-07-23T19:08:00.960Z,32.27
2018-07-23T19:10:30.604Z,32.90
2018-07-23T19:13:00.347Z,34.83
2018-07-23T19:15:30.221Z,40.17
2018-07-23T19:18:00.080Z,41.43
2018-07-23T19:20:30.039Z,32.77
2018-07-23T19:22:59.716Z,34.07
2018-07-23T19:25:29.348Z,24.93
2018-07-23T19:27:58.918Z,22.37
2018-07-23T19:30:28.543Z,20.73
2018-07-23T19:32:58.165Z,32.20
2018-07-23T19:35:27.901Z,32.40
2018-07-23T19:37:57.462Z,27.70
2018-07-23T19:40:27.389Z,26.73
2018-07-23T19:42:57.269Z,28.60
2018-07-23T19:45:26.850Z,25.10
2018-07-23T19:47:56.424Z,22.97
2018-07-23T19:50:26.947Z,27.53
2018-07-23T19:52:57.589Z,26.47
2018-07-23T19:55:27.991Z,29.17
2018-07-23T19:57:57.693Z,32.07
2018-07-23T20:00:27.214Z,29.50
2018-07-23T20:02:56.753Z,27.50
2018-07-23T20:05:26.693Z,30.13
2018-07-23T20:07:56.403Z,34.30
2018-07-23T20:10:26.369Z,30.60
2018-07-23T20:12:56.342Z,30.23
2018-07-23T20:15:26.304Z,34.63
2018-07-23T20:17:56.550Z,30.83
2018-07-23T20:20:26.346Z,29.03
2018-07-23T20:22:55.994Z,27.07
2018-07-23T20:25:25.837Z,26.60
2018-07-23T20:27:55.891Z,28.80
2018-07-23T20:30:25.606Z,27.97
2018-07-23T20:32:55.253Z,27.27
2018-07-23T20:35:24.903Z,26.63
2018-07-23T20:37:54.743Z,29.27
2018-07-23T20:40:24.826Z,28.70
2018-07-23T20:42:55.198Z,26.87
2018-07-23T20:45:25.206Z,25.93
2018-07-23T20:47:55.289Z,25.37
2018-07-23T20:50:24.868Z,29.97
2018-07-23T20:52:54.600Z,29.77
2018-07-23T20:55:24.828Z,27.73
2018-07-23T20:57:54.377Z,25.10
2018-07-23T21:00:23.914Z,25.53
2018-07-23T21:02:53.695Z,28.57
2018-07-23T21:05:23.393Z,28.80
2018-07-23T21:07:53.135Z,26.03
2018-07-23T21:10:23.228Z,32.03
2018-07-23T21:12:52.989Z,33.03
2018-07-23T21:15:22.827Z,34.17
2018-07-23T21:17:52.610Z,42.13
2018-07-23T21:20:22.371Z,45.67
2018-07-23T21:22:52.165Z,44.43
2018-07-23T21:25:21.983Z,47.23
2018-07-23T21:27:51.598Z,48.93
2018-07-23T21:30:21.458Z,51.93
2018-07-23T21:32:51.247Z,50.23
2018-07-23T21:35:20.753Z,47.13
2018-07-23T21:37:50.414Z,49.77
2018-07-23T21:40:20.317Z,43.30
2018-07-23T21:42:50.233Z,39.67
2018-07-23T21:45:19.871Z,44.63
2018-07-23T21:47:49.854Z,36.93
2018-07-23T21:50:19.757Z,39.20
2018-07-23T21:52:49.564Z,41.57
2018-07-23T21:55:19.247Z,36.57
2018-07-23T21:57:48.982Z,41.43
2018-07-23T22:00:18.614Z,38.53
2018-07-23T22:02:48.623Z,36.30
2018-07-23T22:05:18.390Z,36.43
2018-07-23T22:07:48.258Z,38.93
2018-07-23T22:10:17.898Z,37.77
2018-07-23T22:12:47.799Z,36.20
2018-07-23T22:15:17.811Z,37.07
2018-07-23T22:17:47.357Z,32.53
2018-07-23T22:20:17.127Z,30.70
2018-07-23T22:22:46.988Z,33.57
2018-07-23T22:25:16.915Z,31.77
2018-07-23T22:27:46.965Z,32.70
2018-07-23T22:30:16.690Z,38.63
2018-07-23T22:32:46.426Z,27.90
2018-07-23T22:35:16.293Z,32.27
2018-07-23T22:37:46.253Z,31.03
2018-07-23T22:40:16.198Z,30.80
2018-07-23T22:42:46.258Z,31.50
2018-07-23T22:45:16.027Z,28.33
2018-07-23T22:47:45.946Z,27.87
2018-07-23T22:50:15.656Z,27.00
2018-07-23T22:52:45.578Z,30.67
2018-07-23T22:55:15.281Z,29.67
2018-07-23T22:57:45.003Z,30.63
2018-07-23T23:00:14.746Z,34.73
2018-07-23T23:02:44.364Z,27.97
2018-07-23T23:05:13.955Z,28.90
2018-07-23T23:07:43.733Z,31.40
2018-07-23T23:10:13.557Z,29.43
2018-07-23T23:12:43.302Z,32.33
2018-07-23T23:15:13.161Z,27.70
2018-07-23T23:17:42.922Z,26.40
2018-07-23T23:20:12.680Z,31.57
2018-07-23T23:22:42.625Z,29.33
2018-07-23T23:25:12.227Z,28.73
2018-07-23T23:27:41.843Z,25.70
2018-07-23T23:30:12.077Z,23.63
2018-07-23T23:32:41.845Z,24.50
2018-07-23T23:37:46.524Z,20.70
2018-07-23T23:40:16.462Z,20.27
2018-07-23T23:42:46.020Z,23.30
2018-07-23T23:45:15.986Z,21.83
2018-07-23T23:47:45.898Z,20.67
2018-07-23T23:50:15.774Z,18.63
2018-07-23T23:52:45.542Z,19.00
2018-07-23T23:55:15.242Z,18.90
2018-07-23T23:57:44.871Z,16.77
